sensor_id;sensor_type;location;lat;lon;timestamp;P1;durP1;ratioP1;P2;durP2;ratioP2
68995;SDS011;56056;48.990;12.146;2023-07-28T00:01:41;1869.22;;;999.90;;
68995;SDS011;56056;48.990;12.146;2023-07-28T00:04:07;1999.90;;;999.90;;
68995;SDS011;56056;48.990;12.146;2023-07-28T00:06:34;1942.78;;;999.90;;
68995;SDS011;56056;48.990;12.146;2023-07-28T00:09:00;1958.32;;;999.90;;
68995;SDS011;56056;48.990;12.146;2023-07-28T00:11:26;1736.32;;;999.90;;
68995;SDS011;56056;48.990;12.146;2023-07-28T00:13:53;1999.90;;;999.90;;
68995;SDS011;56056;48.990;12.146;2023-07-28T00:16:19;1999.90;;;999.90;;
68995;SDS011;56056;48.990;12.146;2023-07-28T00:18:45;1934.32;;;999.90;;
68995;SDS011;56056;48.990;12.146;2023-07-28T00:21:11;1956.05;;;999.90;;
68995;SDS011;56056;48.990;12.146;2023-07-28T00:23:37;1845.60;;;999.90;;
68995;SDS011;56056;48.990;12.146;2023-07-28T00:26:02;1805.82;;;999.90;;
68995;SDS011;56056;48.990;12.146;2023-07-28T00:28:28;1836.35;;;999.90;;
68995;SDS011;56056;48.990;12.146;2023-07-28T00:30:55;1783.78;;;999.90;;
68995;SDS011;56056;48.990;12.146;2023-07-28T00:33:21;1811.78;;;999.90;;
68995;SDS011;56056;48.990;12.146;2023-07-28T00:35:47;1910.03;;;999.90;;
68995;SDS011;56056;48.990;12.146;2023-07-28T00:38:14;1802.00;;;999.90;;
68995;SDS011;56056;48.990;12.146;2023-07-28T00:40:40;1779.28;;;999.90;;
68995;SDS011;56056;48.990;12.146;2023-07-28T00:43:06;1792.18;;;999.90;;
68995;SDS011;56056;48.990;12.146;2023-07-28T00:45:32;1783.07;;;999.90;;
68995;SDS011;56056;48.990;12.146;2023-07-28T00:48:00;1775.32;;;999.90;;
68995;SDS011;56056;48.990;12.146;2023-07-28T00:50:27;1805.47;;;999.90;;
68995;SDS011;56056;48.990;12.146;2023-07-28T00:52:54;1841.03;;;999.90;;
68995;SDS011;56056;48.990;12.146;2023-07-28T00:55:20;1849.70;;;999.90;;
68995;SDS011;56056;48.990;12.146;2023-07-28T00:57:47;1861.72;;;999.90;;
68995;SDS011;56056;48.990;12.146;2023-07-28T01:00:13;1872.25;;;999.90;;
68995;SDS011;56056;48.990;12.146;2023-07-28T01:02:39;1923.60;;;999.90;;
68995;SDS011;56056;48.990;12.146;2023-07-28T01:05:07;1995.93;;;999.90;;
68995;SDS011;56056;48.990;12.146;2023-07-28T01:07:35;1985.85;;;999.90;;
68995;SDS011;56056;48.990;12.146;2023-07-28T01:10:08;1999.30;;;999.90;;
68995;SDS011;56056;48.990;12.146;2023-07-28T01:12:38;1999.90;;;999.90;;
68995;SDS011;56056;48.990;12.146;2023-07-28T01:15:04;1999.90;;;999.90;;
68995;SDS011;56056;48.990;12.146;2023-07-28T01:17:31;1999.90;;;999.90;;
68995;SDS011;56056;48.990;12.146;2023-07-28T01:19:57;1999.90;;;999.90;;
68995;SDS011;56056;48.990;12.146;2023-07-28T01:22:30;1999.90;;;999.90;;
68995;SDS011;56056;48.990;12.146;2023-07-28T01:25:15;1999.90;;;999.90;;
68995;SDS011;56056;48.990;12.146;2023-07-28T01:27:54;1999.90;;;999.90;;
68995;SDS011;56056;48.990;12.146;2023-07-28T01:30:22;1999.90;;;999.90;;
68995;SDS011;56056;48.990;12.146;2023-07-28T01:32:51;1999.90;;;999.90;;
68995;SDS011;56056;48.990;12.146;2023-07-28T01:35:19;1999.90;;;999.90;;
68995;SDS011;56056;48.990;12.146;2023-07-28T01:37:45;1999.90;;;999.90;;
68995;SDS011;56056;48.990;12.146;2023-07-28T01:40:15;1999.90;;;999.90;;
68995;SDS011;56056;48.990;12.146;2023-07-28T01:42:41;1999.90;;;999.90;;
68995;SDS011;56056;48.990;12.146;2023-07-28T01:45:09;1999.90;;;999.90;;
68995;SDS011;56056;48.990;12.146;2023-07-28T01:47:35;1999.90;;;999.90;;
68995;SDS011;56056;48.990;12.146;2023-07-28T01:50:00;1999.90;;;999.90;;
68995;SDS011;56056;48.990;12.146;2023-07-28T01:52:26;1999.90;;;999.90;;
68995;SDS011;56056;48.990;12.146;2023-07-28T01:54:52;1999.90;;;999.90;;
68995;SDS011;56056;48.990;12.146;2023-07-28T01:57:18;1999.90;;;999.90;;
68995;SDS011;56056;48.990;12.146;2023-07-28T01:59:44;1999.90;;;999.90;;
68995;SDS011;56056;48.990;12.146;2023-07-28T02:02:11;1999.90;;;999.90;;
68995;SDS011;56056;48.990;12.146;2023-07-28T02:04:37;1999.90;;;999.90;;
68995;SDS011;56056;48.990;12.146;2023-07-28T02:07:03;1999.90;;;999.90;;
68995;SDS011;56056;48.990;12.146;2023-07-28T02:09:29;1999.90;;;999.90;;
68995;SDS011;56056;48.990;12.146;2023-07-28T02:11:55;1999.90;;;999.90;;
68995;SDS011;56056;48.990;12.146;2023-07-28T02:14:21;1999.90;;;999.90;;
68995;SDS011;56056;48.990;12.146;2023-07-28T02:16:47;1999.90;;;999.90;;
68995;SDS011;56056;48.990;12.146;2023-07-28T02:19:14;1999.90;;;999.90;;
68995;SDS011;56056;48.990;12.146;2023-07-28T02:21:40;1999.90;;;999.90;;
68995;SDS011;56056;48.990;12.146;2023-07-28T02:24:05;1999.90;;;999.90;;
68995;SDS011;56056;48.990;12.146;2023-07-28T02:26:31;1999.90;;;999.90;;
68995;SDS011;56056;48.990;12.146;2023-07-28T02:28:57;1999.90;;;999.90;;
68995;SDS011;56056;48.990;12.146;2023-07-28T02:31:23;1999.90;;;999.90;;
68995;SDS011;56056;48.990;12.146;2023-07-28T02:33:49;1999.90;;;999.90;;
68995;SDS011;56056;48.990;12.146;2023-07-28T02:36:16;1999.90;;;999.90;;
68995;SDS011;56056;48.990;12.146;2023-07-28T02:38:42;1964.28;;;999.90;;
68995;SDS011;56056;48.990;12.146;2023-07-28T02:41:08;1982.40;;;999.90;;
68995;SDS011;56056;48.990;12.146;2023-07-28T02:43:33;1948.25;;;999.90;;
68995;SDS011;56056;48.990;12.146;2023-07-28T02:45:59;1990.10;;;999.90;;
68995;SDS011;56056;48.990;12.146;2023-07-28T02:48:26;1999.90;;;999.90;;
68995;SDS011;56056;48.990;12.146;2023-07-28T02:50:52;1953.00;;;999.90;;
68995;SDS011;56056;48.990;12.146;2023-07-28T02:53:19;1962.70;;;999.90;;
68995;SDS011;56056;48.990;12.146;2023-07-28T02:55:46;1998.68;;;999.90;;
68995;SDS011;56056;48.990;12.146;2023-07-28T02:58:13;1987.47;;;999.90;;
68995;SDS011;56056;48.990;12.146;2023-07-28T03:00:39;1999.90;;;999.90;;
68995;SDS011;56056;48.990;12.146;2023-07-28T03:03:06;1999.90;;;999.90;;
68995;SDS011;56056;48.990;12.146;2023-07-28T03:05:35;1924.35;;;999.90;;
68995;SDS011;56056;48.990;12.146;2023-07-28T03:08:01;1983.95;;;999.90;;
68995;SDS011;56056;48.990;12.146;2023-07-28T03:10:29;1890.13;;;999.90;;
68995;SDS011;56056;48.990;12.146;2023-07-28T03:12:55;1983.03;;;999.90;;
68995;SDS011;56056;48.990;12.146;2023-07-28T03:15:21;1997.85;;;999.90;;
68995;SDS011;56056;48.990;12.146;2023-07-28T03:17:47;1967.88;;;999.90;;
68995;SDS011;56056;48.990;12.146;2023-07-28T03:20:13;1989.85;;;999.90;;
68995;SDS011;56056;48.990;12.146;2023-07-28T03:22:40;1999.90;;;999.90;;
68995;SDS011;56056;48.990;12.146;2023-07-28T03:25:06;1999.90;;;999.90;;
68995;SDS011;56056;48.990;12.146;2023-07-28T03:27:34;1999.90;;;999.90;;
68995;SDS011;56056;48.990;12.146;2023-07-28T03:30:00;1999.90;;;999.90;;
68995;SDS011;56056;48.990;12.146;2023-07-28T03:32:26;1999.90;;;999.90;;
68995;SDS011;56056;48.990;12.146;2023-07-28T03:34:52;1999.90;;;999.90;;
68995;SDS011;56056;48.990;12.146;2023-07-28T03:37:18;1992.63;;;999.90;;
68995;SDS011;56056;48.990;12.146;2023-07-28T03:39:44;1999.90;;;999.90;;
68995;SDS011;56056;48.990;12.146;2023-07-28T03:42:10;1987.38;;;999.90;;
68995;SDS011;56056;48.990;12.146;2023-07-28T03:44:37;1896.75;;;999.90;;
68995;SDS011;56056;48.990;12.146;2023-07-28T03:47:05;1999.90;;;999.90;;
68995;SDS011;56056;48.990;12.146;2023-07-28T03:49:31;1999.90;;;999.90;;
68995;SDS011;56056;48.990;12.146;2023-07-28T03:51:57;1999.90;;;999.90;;
68995;SDS011;56056;48.990;12.146;2023-07-28T03:54:23;1999.90;;;999.90;;
68995;SDS011;56056;48.990;12.146;2023-07-28T03:56:49;1999.90;;;999.90;;
68995;SDS011;56056;48.990;12.146;2023-07-28T03:59:15;1988.13;;;999.90;;
68995;SDS011;56056;48.990;12.146;2023-07-28T04:01:42;1967.70;;;999.90;;
68995;SDS011;56056;48.990;12.146;2023-07-28T04:04:08;1999.90;;;999.90;;
68995;SDS011;56056;48.990;12.146;2023-07-28T04:06:40;1999.90;;;999.90;;
68995;SDS011;56056;48.990;12.146;2023-07-28T04:09:07;1999.90;;;999.90;;
68995;SDS011;56056;48.990;12.146;2023-07-28T04:11:33;1999.90;;;999.90;;
68995;SDS011;56056;48.990;12.146;2023-07-28T04:13:59;1999.90;;;999.90;;
68995;SDS011;56056;48.990;12.146;2023-07-28T04:16:25;1999.90;;;999.90;;
68995;SDS011;56056;48.990;12.146;2023-07-28T04:18:52;1999.90;;;999.90;;
68995;SDS011;56056;48.990;12.146;2023-07-28T04:21:18;1999.90;;;999.90;;
68995;SDS011;56056;48.990;12.146;2023-07-28T04:23:45;1999.90;;;999.90;;
68995;SDS011;56056;48.990;12.146;2023-07-28T04:26:11;1999.90;;;999.90;;
68995;SDS011;56056;48.990;12.146;2023-07-28T04:28:37;1999.90;;;999.90;;
68995;SDS011;56056;48.990;12.146;2023-07-28T04:31:02;1999.90;;;999.90;;
68995;SDS011;56056;48.990;12.146;2023-07-28T04:33:28;1999.90;;;999.90;;
68995;SDS011;56056;48.990;12.146;2023-07-28T04:35:55;1999.90;;;999.90;;
68995;SDS011;56056;48.990;12.146;2023-07-28T04:38:21;1999.90;;;999.90;;
68995;SDS011;56056;48.990;12.146;2023-07-28T04:40:47;1999.90;;;999.90;;
68995;SDS011;56056;48.990;12.146;2023-07-28T04:43:13;1999.90;;;999.90;;
68995;SDS011;56056;48.990;12.146;2023-07-28T04:45:39;1999.90;;;999.90;;
68995;SDS011;56056;48.990;12.146;2023-07-28T04:48:05;1999.90;;;999.90;;
68995;SDS011;56056;48.990;12.146;2023-07-28T04:50:31;1999.90;;;999.90;;
68995;SDS011;56056;48.990;12.146;2023-07-28T04:52:59;1999.90;;;999.90;;
68995;SDS011;56056;48.990;12.146;2023-07-28T04:55:25;1999.90;;;999.90;;
68995;SDS011;56056;48.990;12.146;2023-07-28T04:57:52;1999.90;;;999.90;;
68995;SDS011;56056;48.990;12.146;2023-07-28T05:00:18;1999.90;;;999.90;;
68995;SDS011;56056;48.990;12.146;2023-07-28T05:02:44;1999.90;;;999.90;;
68995;SDS011;56056;48.990;12.146;2023-07-28T05:05:10;1999.90;;;999.90;;
68995;SDS011;56056;48.990;12.146;2023-07-28T05:07:36;1999.90;;;999.90;;
68995;SDS011;56056;48.990;12.146;2023-07-28T05:10:03;1999.90;;;999.90;;
68995;SDS011;56056;48.990;12.146;2023-07-28T05:12:30;1993.53;;;999.90;;
68995;SDS011;56056;48.990;12.146;2023-07-28T05:14:56;1999.90;;;999.90;;
68995;SDS011;56056;48.990;12.146;2023-07-28T05:17:22;1999.90;;;999.90;;
68995;SDS011;56056;48.990;12.146;2023-07-28T05:19:49;1940.30;;;999.90;;
68995;SDS011;56056;48.990;12.146;2023-07-28T05:22:15;1846.35;;;999.90;;
68995;SDS011;56056;48.990;12.146;2023-07-28T05:24:41;1610.07;;;999.90;;
68995;SDS011;56056;48.990;12.146;2023-07-28T05:27:08;1674.22;;;999.90;;
68995;SDS011;56056;48.990;12.146;2023-07-28T05:29:34;1765.35;;;999.90;;
68995;SDS011;56056;48.990;12.146;2023-07-28T05:32:00;1647.68;;;999.90;;
68995;SDS011;56056;48.990;12.146;2023-07-28T05:34:25;1802.80;;;999.90;;
68995;SDS011;56056;48.990;12.146;2023-07-28T05:36:51;1820.95;;;999.90;;
68995;SDS011;56056;48.990;12.146;2023-07-28T05:39:17;1892.13;;;999.90;;
68995;SDS011;56056;48.990;12.146;2023-07-28T05:41:43;1999.90;;;999.90;;
68995;SDS011;56056;48.990;12.146;2023-07-28T05:44:10;1999.90;;;999.90;;
68995;SDS011;56056;48.990;12.146;2023-07-28T05:46:36;1999.90;;;999.90;;
68995;SDS011;56056;48.990;12.146;2023-07-28T05:49:02;1947.40;;;999.90;;
68995;SDS011;56056;48.990;12.146;2023-07-28T05:51:28;1999.90;;;999.90;;
68995;SDS011;56056;48.990;12.146;2023-07-28T05:53:54;1999.90;;;999.90;;
68995;SDS011;56056;48.990;12.146;2023-07-28T05:56:20;1999.90;;;999.90;;
68995;SDS011;56056;48.990;12.146;2023-07-28T05:58:46;1999.90;;;999.90;;
68995;SDS011;56056;48.990;12.146;2023-07-28T06:01:13;1999.90;;;999.90;;
68995;SDS011;56056;48.990;12.146;2023-07-28T06:03:39;1999.90;;;999.90;;
68995;SDS011;56056;48.990;12.146;2023-07-28T06:06:05;1999.90;;;999.90;;
68995;SDS011;56056;48.990;12.146;2023-07-28T06:08:32;1999.90;;;999.90;;
68995;SDS011;56056;48.990;12.146;2023-07-28T06:10:58;1999.90;;;999.90;;
68995;SDS011;56056;48.990;12.146;2023-07-28T06:13:23;1999.90;;;999.90;;
68995;SDS011;56056;48.990;12.146;2023-07-28T06:15:49;1999.90;;;999.90;;
68995;SDS011;56056;48.990;12.146;2023-07-28T06:18:19;1998.20;;;999.90;;
68995;SDS011;56056;48.990;12.146;2023-07-28T06:20:47;1899.85;;;999.90;;
68995;SDS011;56056;48.990;12.146;2023-07-28T06:23:14;1739.63;;;999.90;;
68995;SDS011;56056;48.990;12.146;2023-07-28T06:25:39;1770.25;;;999.90;;
68995;SDS011;56056;48.990;12.146;2023-07-28T06:28:09;1815.43;;;999.90;;
68995;SDS011;56056;48.990;12.146;2023-07-28T06:30:34;1853.15;;;999.90;;
68995;SDS011;56056;48.990;12.146;2023-07-28T06:33:00;1797.25;;;999.90;;
68995;SDS011;56056;48.990;12.146;2023-07-28T06:35:29;1876.18;;;999.90;;
68995;SDS011;56056;48.990;12.146;2023-07-28T06:37:55;1802.20;;;999.90;;
68995;SDS011;56056;48.990;12.146;2023-07-28T06:40:21;1756.55;;;999.90;;
68995;SDS011;56056;48.990;12.146;2023-07-28T06:42:46;1946.97;;;999.90;;
68995;SDS011;56056;48.990;12.146;2023-07-28T06:45:12;1826.45;;;999.90;;
68995;SDS011;56056;48.990;12.146;2023-07-28T06:47:39;1830.18;;;999.90;;
68995;SDS011;56056;48.990;12.146;2023-07-28T06:50:05;1889.35;;;999.90;;
68995;SDS011;56056;48.990;12.146;2023-07-28T06:52:32;1903.07;;;999.90;;
68995;SDS011;56056;48.990;12.146;2023-07-28T06:54:58;1811.60;;;999.90;;
68995;SDS011;56056;48.990;12.146;2023-07-28T06:57:24;1998.95;;;999.90;;
68995;SDS011;56056;48.990;12.146;2023-07-28T06:59:50;1999.90;;;999.90;;
68995;SDS011;56056;48.990;12.146;2023-07-28T07:02:16;1999.90;;;999.90;;
68995;SDS011;56056;48.990;12.146;2023-07-28T07:04:42;1999.90;;;999.90;;
68995;SDS011;56056;48.990;12.146;2023-07-28T07:07:07;1999.90;;;999.90;;
68995;SDS011;56056;48.990;12.146;2023-07-28T07:09:35;1952.43;;;999.90;;
68995;SDS011;56056;48.990;12.146;2023-07-28T07:12:01;1999.90;;;999.90;;
68995;SDS011;56056;48.990;12.146;2023-07-28T07:14:27;1999.90;;;999.90;;
68995;SDS011;56056;48.990;12.146;2023-07-28T07:16:53;1999.90;;;999.90;;
68995;SDS011;56056;48.990;12.146;2023-07-28T07:19:19;1999.90;;;999.90;;
68995;SDS011;56056;48.990;12.146;2023-07-28T07:21:45;1999.90;;;999.90;;
68995;SDS011;56056;48.990;12.146;2023-07-28T07:24:12;1999.90;;;999.90;;
68995;SDS011;56056;48.990;12.146;2023-07-28T07:26:40;1999.90;;;999.90;;
68995;SDS011;56056;48.990;12.146;2023-07-28T07:29:06;1999.90;;;999.90;;
68995;SDS011;56056;48.990;12.146;2023-07-28T07:31:33;1999.90;;;999.90;;
68995;SDS011;56056;48.990;12.146;2023-07-28T07:33:58;1999.90;;;999.90;;
68995;SDS011;56056;48.990;12.146;2023-07-28T07:36:25;1999.90;;;999.90;;
68995;SDS011;56056;48.990;12.146;2023-07-28T07:38:51;1999.90;;;999.90;;
68995;SDS011;56056;48.990;12.146;2023-07-28T07:41:17;1999.90;;;999.90;;
68995;SDS011;56056;48.990;12.146;2023-07-28T07:43:47;1999.90;;;999.90;;
68995;SDS011;56056;48.990;12.146;2023-07-28T07:46:13;1999.90;;;999.90;;
68995;SDS011;56056;48.990;12.146;2023-07-28T07:48:39;1999.90;;;999.90;;
68995;SDS011;56056;48.990;12.146;2023-07-28T07:51:06;1962.15;;;999.90;;
68995;SDS011;56056;48.990;12.146;2023-07-28T07:53:32;1999.90;;;999.90;;
68995;SDS011;56056;48.990;12.146;2023-07-28T07:55:58;1883.35;;;999.90;;
68995;SDS011;56056;48.990;12.146;2023-07-28T07:58:23;1926.72;;;999.90;;
68995;SDS011;56056;48.990;12.146;2023-07-28T08:00:51;1842.05;;;999.90;;
68995;SDS011;56056;48.990;12.146;2023-07-28T08:03:17;1790.07;;;999.90;;
68995;SDS011;56056;48.990;12.146;2023-07-28T08:05:42;1645.60;;;999.90;;
68995;SDS011;56056;48.990;12.146;2023-07-28T08:08:08;1469.03;;;999.90;;
68995;SDS011;56056;48.990;12.146;2023-07-28T08:10:34;1411.30;;;999.90;;
68995;SDS011;56056;48.990;12.146;2023-07-28T08:13:00;1497.20;;;999.90;;
68995;SDS011;56056;48.990;12.146;2023-07-28T08:15:28;1471.85;;;999.90;;
68995;SDS011;56056;48.990;12.146;2023-07-28T08:17:56;1517.68;;;999.90;;
68995;SDS011;56056;48.990;12.146;2023-07-28T08:20:21;1456.85;;;999.90;;
68995;SDS011;56056;48.990;12.146;2023-07-28T08:22:47;1526.05;;;999.90;;
68995;SDS011;56056;48.990;12.146;2023-07-28T08:25:13;1544.75;;;999.90;;
68995;SDS011;56056;48.990;12.146;2023-07-28T08:27:39;1614.72;;;999.90;;
68995;SDS011;56056;48.990;12.146;2023-07-28T08:30:05;1784.85;;;999.90;;
68995;SDS011;56056;48.990;12.146;2023-07-28T08:32:33;1639.68;;;999.90;;
68995;SDS011;56056;48.990;12.146;2023-07-28T08:35:00;1625.25;;;999.90;;
68995;SDS011;56056;48.990;12.146;2023-07-28T08:37:28;1634.45;;;999.90;;
68995;SDS011;56056;48.990;12.146;2023-07-28T08:39:54;1673.00;;;999.90;;
68995;SDS011;56056;48.990;12.146;2023-07-28T08:42:20;1734.68;;;999.90;;
68995;SDS011;56056;48.990;12.146;2023-07-28T08:44:49;1713.68;;;999.90;;
68995;SDS011;56056;48.990;12.146;2023-07-28T08:47:17;1760.28;;;999.90;;
68995;SDS011;56056;48.990;12.146;2023-07-28T08:49:44;1754.20;;;999.90;;
68995;SDS011;56056;48.990;12.146;2023-07-28T08:52:11;1840.30;;;999.90;;
68995;SDS011;56056;48.990;12.146;2023-07-28T08:54:41;1835.30;;;999.90;;
68995;SDS011;56056;48.990;12.146;2023-07-28T08:57:07;1824.80;;;999.90;;
68995;SDS011;56056;48.990;12.146;2023-07-28T08:59:34;1854.28;;;999.90;;
68995;SDS011;56056;48.990;12.146;2023-07-28T09:02:01;1727.80;;;999.90;;
68995;SDS011;56056;48.990;12.146;2023-07-28T09:04:29;1965.38;;;999.90;;
68995;SDS011;56056;48.990;12.146;2023-07-28T09:06:55;1966.70;;;999.90;;
68995;SDS011;56056;48.990;12.146;2023-07-28T09:09:22;1879.20;;;999.90;;
68995;SDS011;56056;48.990;12.146;2023-07-28T09:11:49;1860.25;;;999.90;;
68995;SDS011;56056;48.990;12.146;2023-07-28T09:14:17;1877.97;;;999.90;;
68995;SDS011;56056;48.990;12.146;2023-07-28T09:16:45;1954.72;;;999.90;;
68995;SDS011;56056;48.990;12.146;2023-07-28T09:19:11;1914.28;;;999.90;;
68995;SDS011;56056;48.990;12.146;2023-07-28T09:21:39;1948.40;;;999.90;;
68995;SDS011;56056;48.990;12.146;2023-07-28T09:24:09;1932.00;;;999.90;;
68995;SDS011;56056;48.990;12.146;2023-07-28T09:26:38;1968.40;;;999.90;;
68995;SDS011;56056;48.990;12.146;2023-07-28T09:29:11;1984.57;;;999.90;;
68995;SDS011;56056;48.990;12.146;2023-07-28T09:31:39;1998.57;;;999.90;;
68995;SDS011;56056;48.990;12.146;2023-07-28T09:34:06;1987.78;;;999.90;;
68995;SDS011;56056;48.990;12.146;2023-07-28T09:36:33;1999.90;;;999.90;;
68995;SDS011;56056;48.990;12.146;2023-07-28T09:38:59;1999.90;;;999.90;;
68995;SDS011;56056;48.990;12.146;2023-07-28T09:41:28;1811.95;;;999.90;;
68995;SDS011;56056;48.990;12.146;2023-07-28T09:43:56;1888.93;;;999.90;;
68995;SDS011;56056;48.990;12.146;2023-07-28T09:46:22;1957.10;;;999.90;;
68995;SDS011;56056;48.990;12.146;2023-07-28T09:48:50;1890.47;;;999.90;;
68995;SDS011;56056;48.990;12.146;2023-07-28T09:51:21;1999.90;;;999.90;;
68995;SDS011;56056;48.990;12.146;2023-07-28T09:53:53;1980.28;;;999.90;;
68995;SDS011;56056;48.990;12.146;2023-07-28T09:56:24;1999.90;;;999.90;;
68995;SDS011;56056;48.990;12.146;2023-07-28T09:58:58;1999.90;;;999.90;;
68995;SDS011;56056;48.990;12.146;2023-07-28T10:01:28;1999.90;;;999.90;;
68995;SDS011;56056;48.990;12.146;2023-07-28T10:03:54;1999.90;;;999.90;;
68995;SDS011;56056;48.990;12.146;2023-07-28T10:06:20;1999.90;;;999.90;;
68995;SDS011;56056;48.990;12.146;2023-07-28T10:08:49;1977.35;;;999.90;;
68995;SDS011;56056;48.990;12.146;2023-07-28T10:11:16;1999.90;;;999.90;;
68995;SDS011;56056;48.990;12.146;2023-07-28T10:13:43;1994.38;;;999.90;;
68995;SDS011;56056;48.990;12.146;2023-07-28T10:16:12;1736.57;;;999.90;;
68995;SDS011;56056;48.990;12.146;2023-07-28T10:18:42;1714.75;;;999.90;;
68995;SDS011;56056;48.990;12.146;2023-07-28T10:21:18;1998.80;;;999.90;;
68995;SDS011;56056;48.990;12.146;2023-07-28T10:23:44;1934.88;;;999.90;;
68995;SDS011;56056;48.990;12.146;2023-07-28T10:26:18;1999.90;;;999.90;;
68995;SDS011;56056;48.990;12.146;2023-07-28T10:29:07;1999.90;;;999.90;;
68995;SDS011;56056;48.990;12.146;2023-07-28T10:31:36;1999.90;;;999.90;;
68995;SDS011;56056;48.990;12.146;2023-07-28T10:34:02;1920.35;;;999.90;;
68995;SDS011;56056;48.990;12.146;2023-07-28T10:36:32;1615.32;;;999.90;;
68995;SDS011;56056;48.990;12.146;2023-07-28T10:39:11;1551.85;;;999.90;;
68995;SDS011;56056;48.990;12.146;2023-07-28T10:41:40;1515.38;;;999.90;;
68995;SDS011;56056;48.990;12.146;2023-07-28T10:44:25;1389.07;;;999.90;;
68995;SDS011;56056;48.990;12.146;2023-07-28T10:46:53;1372.57;;;999.90;;
68995;SDS011;56056;48.990;12.146;2023-07-28T10:49:19;1370.00;;;999.90;;
68995;SDS011;56056;48.990;12.146;2023-07-28T10:51:45;1340.10;;;999.90;;
68995;SDS011;56056;48.990;12.146;2023-07-28T10:54:11;1387.18;;;999.90;;
68995;SDS011;56056;48.990;12.146;2023-07-28T10:56:41;1368.75;;;999.90;;
68995;SDS011;56056;48.990;12.146;2023-07-28T10:59:07;1521.72;;;999.90;;
68995;SDS011;56056;48.990;12.146;2023-07-28T11:01:34;1559.50;;;999.90;;
68995;SDS011;56056;48.990;12.146;2023-07-28T11:04:07;1540.28;;;999.90;;
68995;SDS011;56056;48.990;12.146;2023-07-28T11:06:35;1528.13;;;999.90;;
68995;SDS011;56056;48.990;12.146;2023-07-28T11:09:01;1476.53;;;999.90;;
68995;SDS011;56056;48.990;12.146;2023-07-28T11:11:27;1593.43;;;999.90;;
68995;SDS011;56056;48.990;12.146;2023-07-28T11:13:53;1555.93;;;999.90;;
68995;SDS011;56056;48.990;12.146;2023-07-28T11:16:20;1667.32;;;999.90;;
68995;SDS011;56056;48.990;12.146;2023-07-28T11:18:46;1688.85;;;999.90;;
68995;SDS011;56056;48.990;12.146;2023-07-28T11:21:13;1499.88;;;999.90;;
68995;SDS011;56056;48.990;12.146;2023-07-28T11:23:44;1607.80;;;999.90;;
68995;SDS011;56056;48.990;12.146;2023-07-28T11:26:10;1441.50;;;999.90;;
68995;SDS011;56056;48.990;12.146;2023-07-28T11:28:36;1380.70;;;999.90;;
68995;SDS011;56056;48.990;12.146;2023-07-28T11:31:03;1369.47;;;999.90;;
68995;SDS011;56056;48.990;12.146;2023-07-28T11:33:29;1430.63;;;999.90;;
68995;SDS011;56056;48.990;12.146;2023-07-28T11:35:56;1588.97;;;999.90;;
68995;SDS011;56056;48.990;12.146;2023-07-28T11:38:23;1689.10;;;999.90;;
68995;SDS011;56056;48.990;12.146;2023-07-28T11:40:49;1311.20;;;999.90;;
68995;SDS011;56056;48.990;12.146;2023-07-28T11:43:16;1804.60;;;999.90;;
68995;SDS011;56056;48.990;12.146;2023-07-28T11:45:43;1691.55;;;999.90;;
68995;SDS011;56056;48.990;12.146;2023-07-28T11:48:09;1731.18;;;999.90;;
68995;SDS011;56056;48.990;12.146;2023-07-28T11:50:37;1714.00;;;999.90;;
68995;SDS011;56056;48.990;12.146;2023-07-28T11:53:05;1723.18;;;999.90;;
68995;SDS011;56056;48.990;12.146;2023-07-28T11:55:33;1874.70;;;999.90;;
68995;SDS011;56056;48.990;12.146;2023-07-28T11:58:00;1587.47;;;999.90;;
68995;SDS011;56056;48.990;12.146;2023-07-28T12:00:29;1461.53;;;999.90;;
68995;SDS011;56056;48.990;12.146;2023-07-28T12:03:03;1598.00;;;999.90;;
68995;SDS011;56056;48.990;12.146;2023-07-28T12:05:30;1307.80;;;999.90;;
68995;SDS011;56056;48.990;12.146;2023-07-28T12:07:57;1689.18;;;999.90;;
68995;SDS011;56056;48.990;12.146;2023-07-28T12:10:23;1780.18;;;999.90;;
68995;SDS011;56056;48.990;12.146;2023-07-28T12:12:50;1780.53;;;999.90;;
68995;SDS011;56056;48.990;12.146;2023-07-28T12:15:20;1619.72;;;999.90;;
68995;SDS011;56056;48.990;12.146;2023-07-28T12:18:01;1783.13;;;999.90;;
68995;SDS011;56056;48.990;12.146;2023-07-28T12:20:32;1732.95;;;999.90;;
68995;SDS011;56056;48.990;12.146;2023-07-28T12:22:59;1706.40;;;999.90;;
68995;SDS011;56056;48.990;12.146;2023-07-28T12:25:26;1695.07;;;999.90;;
68995;SDS011;56056;48.990;12.146;2023-07-28T12:27:53;1598.70;;;999.90;;
68995;SDS011;56056;48.990;12.146;2023-07-28T12:30:19;1529.97;;;999.90;;
68995;SDS011;56056;48.990;12.146;2023-07-28T12:32:45;1405.70;;;999.90;;
68995;SDS011;56056;48.990;12.146;2023-07-28T12:35:11;1555.20;;;999.90;;
68995;SDS011;56056;48.990;12.146;2023-07-28T12:37:38;1546.30;;;999.90;;
68995;SDS011;56056;48.990;12.146;2023-07-28T12:40:04;1494.47;;;999.90;;
68995;SDS011;56056;48.990;12.146;2023-07-28T12:42:32;1470.95;;;999.90;;
68995;SDS011;56056;48.990;12.146;2023-07-28T12:44:59;1446.70;;;999.90;;
68995;SDS011;56056;48.990;12.146;2023-07-28T12:47:25;1639.75;;;999.90;;
68995;SDS011;56056;48.990;12.146;2023-07-28T12:49:51;1586.03;;;999.90;;
68995;SDS011;56056;48.990;12.146;2023-07-28T12:52:17;1663.03;;;999.90;;
68995;SDS011;56056;48.990;12.146;2023-07-28T12:54:43;1808.22;;;999.90;;
68995;SDS011;56056;48.990;12.146;2023-07-28T12:57:09;1777.22;;;999.90;;
68995;SDS011;56056;48.990;12.146;2023-07-28T12:59:37;1544.38;;;999.90;;
68995;SDS011;56056;48.990;12.146;2023-07-28T13:02:05;1541.47;;;999.90;;
68995;SDS011;56056;48.990;12.146;2023-07-28T13:04:31;1438.75;;;999.90;;
68995;SDS011;56056;48.990;12.146;2023-07-28T13:06:57;1581.95;;;999.90;;
68995;SDS011;56056;48.990;12.146;2023-07-28T13:09:23;1371.78;;;999.90;;
68995;SDS011;56056;48.990;12.146;2023-07-28T13:11:49;1371.07;;;999.90;;
68995;SDS011;56056;48.990;12.146;2023-07-28T13:14:14;1833.10;;;999.90;;
68995;SDS011;56056;48.990;12.146;2023-07-28T13:16:40;1934.90;;;999.90;;
68995;SDS011;56056;48.990;12.146;2023-07-28T13:19:07;1740.40;;;999.90;;
68995;SDS011;56056;48.990;12.146;2023-07-28T13:21:33;1619.50;;;999.90;;
68995;SDS011;56056;48.990;12.146;2023-07-28T13:23:59;1451.80;;;999.90;;
68995;SDS011;56056;48.990;12.146;2023-07-28T13:26:25;1578.70;;;999.90;;
68995;SDS011;56056;48.990;12.146;2023-07-28T13:28:51;1705.05;;;999.90;;
68995;SDS011;56056;48.990;12.146;2023-07-28T13:31:17;1705.90;;;999.90;;
68995;SDS011;56056;48.990;12.146;2023-07-28T13:33:43;1786.97;;;999.90;;